createdAt,value
2022-12-18T00:02:16.418Z,102896.50
2022-12-18T00:04:42.888Z,102892.97
2022-12-18T00:07:09.347Z,102886.50
2022-12-18T00:09:40.138Z,102867.81
2022-12-18T00:14:45.189Z,102860.28
2022-12-18T00:17:11.617Z,102859.28
2022-12-18T00:19:38.080Z,102865.34
2022-12-18T00:22:04.561Z,102869.78
2022-12-18T00:24:31.090Z,102868.72
2022-12-18T00:26:57.590Z,102876.81
2022-12-18T00:29:24.083Z,102881.53
2022-12-18T00:31:50.865Z,102883.06
2022-12-18T00:34:17.403Z,102874.00
2022-12-18T00:36:43.968Z,102864.94
2022-12-18T00:39:13.006Z,102869.66
2022-12-18T00:41:57.998Z,102871.97
2022-12-18T00:44:25.684Z,102871.81
2022-12-18T00:46:52.235Z,102866.88
2022-12-18T00:49:20.567Z,102864.84
2022-12-18T00:51:47.852Z,102867.53
2022-12-18T00:54:14.793Z,102872.72
2022-12-18T00:56:49.850Z,102866.00
2022-12-18T00:59:19.012Z,102869.84
2022-12-18T01:01:46.119Z,102875.34
2022-12-18T01:04:12.724Z,102864.16
2022-12-18T01:06:39.302Z,102857.91
2022-12-18T01:09:07.051Z,102847.03
2022-12-18T01:11:36.588Z,102857.22
2022-12-18T01:14:04.933Z,102858.75
2022-12-18T01:16:31.422Z,102862.22
2022-12-18T01:18:58.059Z,102864.72
2022-12-18T01:21:26.602Z,102861.63
2022-12-18T01:23:55.172Z,102864.53
2022-12-18T01:26:24.931Z,102865.56
2022-12-18T01:28:51.834Z,102880.41
2022-12-18T01:31:26.717Z,102884.34
2022-12-18T01:33:56.015Z,102876.06
2022-12-18T01:36:29.760Z,102882.31
2022-12-18T01:38:56.820Z,102875.34
2022-12-18T01:41:26.517Z,102884.19
2022-12-18T01:43:57.871Z,102884.19
2022-12-18T01:46:26.024Z,102892.28
2022-12-18T01:49:02.208Z,102888.91
2022-12-18T01:51:31.358Z,102884.19
2022-12-18T01:53:59.639Z,102885.25
2022-12-18T01:56:26.182Z,102880.91
2022-12-18T01:59:07.494Z,102884.38
2022-12-18T02:01:34.202Z,102884.66
2022-12-18T02:04:22.966Z,102891.75
2022-12-18T02:06:59.054Z,102892.31
2022-12-18T02:09:35.379Z,102893.66
2022-12-18T02:12:14.891Z,102892.09
2022-12-18T02:14:59.927Z,102897.09
2022-12-18T02:17:43.905Z,102890.91
2022-12-18T02:20:26.471Z,102892.72
2022-12-18T02:23:06.738Z,102892.72
2022-12-18T02:26:03.221Z,102897.44
2022-12-18T02:28:34.784Z,102898.47
2022-12-18T02:31:09.077Z,102901.84
2022-12-18T02:33:38.389Z,102896.44
2022-12-18T02:36:06.798Z,102894.91
2022-12-18T02:38:34.725Z,102892.56
2022-12-18T02:41:08.474Z,102889.47
2022-12-18T02:43:36.255Z,102886.41
2022-12-18T02:46:37.743Z,102887.94
2022-12-18T02:49:22.307Z,102873.41
2022-12-18T02:51:54.382Z,102866.19
2022-12-18T02:54:37.882Z,102867.25
2022-12-18T02:57:23.421Z,102870.41
2022-12-18T03:00:13.363Z,102875.59
2022-12-18T03:02:48.616Z,102866.56
2022-12-18T03:05:23.775Z,102868.66
2022-12-18T03:08:04.131Z,102859.88
2022-12-18T03:10:43.479Z,102852.91
2022-12-18T03:13:14.452Z,102847.50
2022-12-18T03:15:46.590Z,102861.25
2022-12-18T03:18:22.883Z,102853.19
2022-12-18T03:20:51.901Z,102851.94
2022-12-18T03:23:26.490Z,102844.69
2022-12-18T03:25:56.781Z,102842.38
2022-12-18T03:28:28.304Z,102838.78
2022-12-18T03:31:03.037Z,102832.34
2022-12-18T03:33:41.850Z,102839.13
2022-12-18T03:36:08.996Z,102830.56
2022-12-18T03:38:35.848Z,102828.53
2022-12-18T03:41:12.812Z,102827.28
2022-12-18T03:44:13.351Z,102827.28
2022-12-18T03:47:08.893Z,102823.16
2022-12-18T03:49:44.441Z,102821.59
2022-12-18T03:52:18.547Z,102819.84
2022-12-18T03:54:47.136Z,102823.00
2022-12-18T03:57:23.908Z,102825.09
2022-12-18T04:00:05.573Z,102813.44
2022-12-18T04:02:53.519Z,102808.25
2022-12-18T04:05:28.134Z,102811.91
2022-12-18T04:07:57.194Z,102807.25
2022-12-18T04:10:23.866Z,102807.53
2022-12-18T04:12:50.875Z,102805.22
2022-12-18T04:15:17.565Z,102805.00
2022-12-18T04:17:53.426Z,102795.97
2022-12-18T04:20:23.392Z,102789.53
2022-12-18T04:22:50.171Z,102784.88
2022-12-18T04:25:19.357Z,102789.59
2022-12-18T04:28:04.993Z,102784.66
2022-12-18T04:30:32.002Z,102779.75
2022-12-18T04:32:59.257Z,102782.66
2022-12-18T04:35:26.050Z,102775.91
2022-12-18T04:37:52.515Z,102784.75
2022-12-18T04:40:19.097Z,102786.56
2022-12-18T04:42:47.880Z,102784.81
2022-12-18T04:45:14.637Z,102789.22
2022-12-18T04:47:41.136Z,102795.19
2022-12-18T04:50:08.001Z,102801.41
2022-12-18T04:52:34.480Z,102814.38
2022-12-18T04:55:01.000Z,102812.06
2022-12-18T04:57:27.506Z,102821.66
2022-12-18T04:59:53.906Z,102821.94
2022-12-18T05:02:20.528Z,102814.16
2022-12-18T05:04:47.097Z,102823.75
2022-12-18T05:07:13.600Z,102833.84
2022-12-18T05:09:40.033Z,102836.72
2022-12-18T05:12:06.676Z,102839.31
2022-12-18T05:14:33.199Z,102830.75
2022-12-18T05:17:01.214Z,102838.53
2022-12-18T05:19:27.929Z,102840.63
2022-12-18T05:21:54.403Z,102842.44
2022-12-18T05:24:20.872Z,102840.91
2022-12-18T05:26:47.355Z,102851.28
2022-12-18T05:29:14.187Z,102854.13
2022-12-18T05:31:41.214Z,102858.56
2022-12-18T05:34:09.474Z,102860.88
2022-12-18T05:36:37.128Z,102862.41
2022-12-18T05:39:04.138Z,102857.50
2022-12-18T05:41:30.925Z,102852.31
2022-12-18T05:43:57.691Z,102844.53
2022-12-18T05:46:25.459Z,102837.81
2022-12-18T05:48:52.118Z,102828.22
2022-12-18T05:51:21.139Z,102827.16
2022-12-18T05:53:48.195Z,102830.03
2022-12-18T05:56:21.660Z,102828.47
2022-12-18T05:58:51.510Z,102830.31
2022-12-18T06:01:20.780Z,102828.75
2022-12-18T06:03:47.883Z,102822.03
2022-12-18T06:06:15.700Z,102823.06
2022-12-18T06:08:46.180Z,102823.06
2022-12-18T06:11:14.165Z,102817.88
2022-12-18T06:13:40.935Z,102812.22
2022-12-18T06:16:09.044Z,102811.72
2022-12-18T06:18:39.058Z,102802.88
2022-12-18T06:21:05.663Z,102796.41
2022-12-18T06:23:32.126Z,102794.38
2022-12-18T06:25:58.798Z,102793.88
2022-12-18T06:28:25.467Z,102793.88
2022-12-18T06:30:52.012Z,102795.97
2022-12-18T06:33:18.606Z,102798.84
2022-12-18T06:35:45.058Z,102789.81
2022-12-18T06:38:11.657Z,102777.91
2022-12-18T06:40:40.007Z,102779.72
2022-12-18T06:43:07.147Z,102780.00
2022-12-18T06:45:33.768Z,102785.44
2022-12-18T06:48:00.388Z,102782.63
2022-12-18T06:50:27.030Z,102777.44
2022-12-18T06:52:53.446Z,102764.00
2022-12-18T06:55:19.896Z,102764.00
2022-12-18T06:57:46.313Z,102764.00
2022-12-18T07:00:13.217Z,102759.84
2022-12-18T07:02:39.994Z,102753.13
2022-12-18T07:05:10.677Z,102760.41
2022-12-18T07:07:37.978Z,102755.22
2022-12-18T07:10:05.115Z,102756.25
2022-12-18T07:12:31.572Z,102755.50
2022-12-18T07:14:58.037Z,102747.22
2022-12-18T07:17:24.734Z,102744.13
2022-12-18T07:19:51.162Z,102741.00
2022-12-18T07:22:17.659Z,102736.59
2022-12-18T07:24:44.248Z,102739.16
2022-12-18T07:27:10.659Z,102744.09
2022-12-18T07:29:37.203Z,102740.44
2022-12-18T07:32:04.736Z,102740.72
2022-12-18T07:34:31.205Z,102730.63
2022-12-18T07:36:57.707Z,102726.50
2022-12-18T07:39:24.364Z,102717.66
2022-12-18T07:42:10.816Z,102715.84
2022-12-18T07:44:40.063Z,102721.81
2022-12-18T07:47:10.481Z,102710.19
2022-12-18T07:49:38.797Z,102703.16
2022-12-18T07:52:05.327Z,102710.19
2022-12-18T07:54:31.786Z,102700.31
2022-12-18T07:56:58.347Z,102690.44
2022-12-18T07:59:24.854Z,102687.56
2022-12-18T08:01:51.384Z,102694.03
2022-12-18T08:04:18.145Z,102690.38
2022-12-18T08:06:47.762Z,102693.47
2022-12-18T08:09:14.985Z,102672.47
2022-12-18T08:11:41.419Z,102669.59
2022-12-18T08:14:07.995Z,102676.81
2022-12-18T08:16:34.999Z,102673.19
2022-12-18T08:19:01.493Z,102680.38
2022-12-18T08:21:30.604Z,102673.59
2022-12-18T08:23:59.518Z,102674.09
2022-12-18T08:26:29.003Z,102680.28
2022-12-18T08:28:57.088Z,102694.72
2022-12-18T08:31:24.513Z,102700.91
2022-12-18T08:33:52.234Z,102711.47
2022-12-18T08:36:19.315Z,102711.22
2022-12-18T08:38:46.146Z,102699.28
2022-12-18T08:41:15.786Z,102703.16
2022-12-18T08:44:00.566Z,102704.69
2022-12-18T08:46:32.484Z,102690.69
2022-12-18T08:48:59.123Z,102688.81
2022-12-18T08:51:25.647Z,102695.53
2022-12-18T08:53:52.165Z,102691.88
2022-12-18T08:56:18.770Z,102688.72
2022-12-18T08:58:45.273Z,102679.88
2022-12-18T09:01:13.731Z,102693.28
2022-12-18T09:03:40.961Z,102712.59
2022-12-18T09:06:08.217Z,102709.94
2022-12-18T09:08:40.794Z,102698.44
2022-12-18T09:11:13.755Z,102694.47
2022-12-18T09:13:40.534Z,102689.94
2022-12-18T09:16:09.814Z,102691.69
2022-12-18T09:18:36.716Z,102697.28
2022-12-18T09:21:20.833Z,102687.63
2022-12-18T09:23:51.892Z,102685.72
2022-12-18T09:26:18.544Z,102691.88
2022-12-18T09:28:45.096Z,102695.16
2022-12-18T09:31:16.655Z,102691.72
2022-12-18T09:33:43.231Z,102695.75
2022-12-18T09:36:12.284Z,102688.66
2022-12-18T09:38:39.206Z,102663.66
2022-12-18T09:41:20.214Z,102667.72
2022-12-18T09:43:51.760Z,102661.66
2022-12-18T09:46:26.343Z,102667.53
2022-12-18T09:48:55.515Z,102662.75
2022-12-18T09:51:38.356Z,102662.03
2022-12-18T09:54:11.627Z,102651.28
2022-12-18T09:56:42.922Z,102643.88
2022-12-18T09:59:25.021Z,102650.22
2022-12-18T10:01:52.003Z,102648.78
2022-12-18T10:04:19.625Z,102643.94
2022-12-18T10:06:54.432Z,102644.78
2022-12-18T10:09:47.231Z,102647.75
2022-12-18T10:12:41.671Z,102644.94
2022-12-18T10:15:19.369Z,102637.53
2022-12-18T10:17:59.157Z,102636.03
2022-12-18T10:20:34.136Z,102634.84
2022-12-18T10:23:34.921Z,102639.66
2022-12-18T10:26:07.201Z,102642.91
2022-12-18T10:28:37.452Z,102651.38
2022-12-18T10:31:07.108Z,102638.53
2022-12-18T10:33:34.972Z,102625.41
2022-12-18T10:36:01.725Z,102620.84
2022-12-18T10:38:31.422Z,102608.00
2022-12-18T10:41:04.487Z,102620.91
2022-12-18T10:43:34.804Z,102631.19
2022-12-18T10:46:10.389Z,102617.28
2022-12-18T10:48:48.174Z,102609.81
2022-12-18T10:53:54.221Z,102603.41
2022-12-18T10:54:23.703Z,102604.81
2022-12-18T10:56:50.600Z,102608.34
2022-12-18T10:59:18.992Z,102607.13
2022-12-18T11:01:55.701Z,102597.34
2022-12-18T11:04:23.764Z,102585.25
2022-12-18T11:07:11.174Z,102582.53
2022-12-18T11:09:40.282Z,102579.78
2022-12-18T11:12:18.882Z,102573.66
2022-12-18T11:15:00.568Z,102566.47
2022-12-18T11:17:32.730Z,102568.16
2022-12-18T11:20:00.958Z,102564.63
2022-12-18T11:22:28.926Z,102562.66
2022-12-18T11:25:32.741Z,102543.50
2022-12-18T11:27:56.935Z,102546.41
2022-12-18T11:30:38.996Z,102544.72
2022-12-18T11:33:21.649Z,102542.44
2022-12-18T11:35:55.111Z,102556.06
2022-12-18T11:38:25.244Z,102558.06
2022-12-18T11:40:58.473Z,102551.94
2022-12-18T11:43:49.430Z,102555.94
2022-12-18T11:46:24.272Z,102545.66
2022-12-18T11:48:59.786Z,102540.56
2022-12-18T11:51:38.990Z,102537.81
2022-12-18T11:54:16.332Z,102535.66
2022-12-18T11:57:12.334Z,102530.28
2022-12-18T11:59:59.654Z,102523.69
2022-12-18T12:03:00.271Z,102517.81
2022-12-18T12:05:50.995Z,102510.59
2022-12-18T12:08:35.697Z,102501.38
2022-12-18T12:11:26.300Z,102495.06
2022-12-18T12:14:20.700Z,102485.84
2022-12-18T12:17:07.752Z,102484.94
2022-12-18T12:20:00.140Z,102483.53
2022-12-18T12:22:44.066Z,102478.00
2022-12-18T12:25:34.345Z,102476.31
2022-12-18T12:28:15.878Z,102480.59
2022-12-18T12:31:08.644Z,102474.75
2022-12-18T12:33:45.390Z,102468.13
2022-12-18T12:36:20.828Z,102466.75
2022-12-18T12:38:52.879Z,102469.47
2022-12-18T12:41:44.593Z,102466.53
2022-12-18T12:44:19.178Z,102456.53
2022-12-18T12:46:47.217Z,102448.06
2022-12-18T12:49:23.097Z,102446.69
2022-12-18T12:52:18.684Z,102431.47
2022-12-18T12:54:46.445Z,102431.47
2022-12-18T12:57:28.158Z,102435.28
2022-12-18T12:59:57.751Z,102424.53
2022-12-18T13:02:43.295Z,102438.03
2022-12-18T13:05:21.090Z,102432.94
2022-12-18T13:07:54.221Z,102427.41
2022-12-18T13:10:32.194Z,102424.47
2022-12-18T13:13:13.397Z,102425.69
2022-12-18T13:15:44.761Z,102432.47
2022-12-18T13:18:17.741Z,102423.09
2022-12-18T13:21:02.978Z,102425.84
2022-12-18T13:23:34.541Z,102427.06
2022-12-18T13:26:07.121Z,102430.44
2022-12-18T13:28:33.461Z,102431.19
2022-12-18T13:31:02.104Z,102424.56
2022-12-18T13:33:34.615Z,102416.72
2022-12-18T13:36:36.501Z,102411.94
2022-12-18T13:39:11.890Z,102413.91
2022-12-18T13:41:39.068Z,102404.53
2022-12-18T13:44:41.499Z,102401.16
2022-12-18T13:47:31.984Z,102399.31
2022-12-18T13:49:59.383Z,102397.13
2022-12-18T13:52:29.666Z,102385.47
2022-12-18T13:54:58.967Z,102375.47
2022-12-18T13:57:36.668Z,102376.22
2022-12-18T14:00:29.451Z,102374.84
2022-12-18T14:02:57.985Z,102370.69
2022-12-18T14:05:30.673Z,102368.53
2022-12-18T14:08:11.519Z,102368.53
2022-12-18T14:10:49.097Z,102361.44
2022-12-18T14:13:28.853Z,102355.91
2022-12-18T14:15:56.960Z,102367.88
2022-12-18T14:18:37.208Z,102354.81
2022-12-18T14:21:05.352Z,102349.59
2022-12-18T14:23:36.346Z,102346.97
2022-12-18T14:26:19.058Z,102341.44
2022-12-18T14:28:45.657Z,102339.25
2022-12-18T14:31:24.384Z,102329.56
2022-12-18T14:33:52.958Z,102328.81
2022-12-18T14:36:28.078Z,102326.19
2022-12-18T14:38:59.267Z,102326.19
2022-12-18T14:41:26.863Z,102321.72
2022-12-18T14:43:55.061Z,102319.13
2022-12-18T14:46:36.297Z,102315.41
2022-12-18T14:49:06.434Z,102317.25
2022-12-18T14:51:34.969Z,102313.13
2022-12-18T14:54:04.961Z,102309.41
2022-12-18T14:56:34.718Z,102308.66
2022-12-18T14:59:04.639Z,102309.75
2022-12-18T15:01:38.246Z,102309.28
2022-12-18T15:04:24.155Z,102305.59
2022-12-18T15:07:12.212Z,102303.75
2022-12-18T15:09:41.361Z,102307.78
2022-12-18T15:12:29.994Z,102302.53
2022-12-18T15:14:56.506Z,102301.78
2022-12-18T15:17:26.115Z,102298.41
2022-12-18T15:20:01.407Z,102292.09
2022-12-18T15:22:30.599Z,102298.84
2022-12-18T15:24:59.003Z,102304.06
2022-12-18T15:27:36.624Z,102297.75
2022-12-18T15:30:19.194Z,102288.38
2022-12-18T15:32:46.235Z,102292.09
2022-12-18T15:35:22.983Z,102289.47
2022-12-18T15:37:51.162Z,102295.00
2022-12-18T15:40:22.859Z,102291.31
2022-12-18T15:43:11.029Z,102299.94
2022-12-18T15:45:37.586Z,102299.94
2022-12-18T15:48:31.002Z,102295.00
2022-12-18T15:50:59.331Z,102294.25
2022-12-18T15:53:30.410Z,102281.94
2022-12-18T15:56:15.240Z,102277.03
2022-12-18T15:58:41.712Z,102265.81
2022-12-18T16:01:10.515Z,102259.84
2022-12-18T16:03:37.248Z,102264.75
2022-12-18T16:06:04.196Z,102261.38
2022-12-18T16:08:31.170Z,102259.19
2022-12-18T16:10:59.185Z,102250.91
2022-12-18T16:13:25.701Z,102249.06
2022-12-18T16:15:52.257Z,102252.44
2022-12-18T16:18:18.743Z,102241.97
2022-12-18T16:20:45.150Z,102235.22
2022-12-18T16:23:11.653Z,102225.84
2022-12-18T16:25:38.167Z,102227.38
2022-12-18T16:28:05.574Z,102221.06
2022-12-18T16:30:38.377Z,102223.69
2022-12-18T16:33:07.487Z,102211.38
2022-12-18T16:35:35.212Z,102206.91
2022-12-18T16:38:01.733Z,102205.06
2022-12-18T16:40:28.556Z,102198.75
2022-12-18T16:42:54.949Z,102187.22
2022-12-18T16:45:21.430Z,102181.97
2022-12-18T16:47:48.011Z,102197.66
2022-12-18T16:50:14.843Z,102193.97
2022-12-18T16:52:41.695Z,102187.22
2022-12-18T16:55:08.667Z,102188.75
2022-12-18T16:57:35.306Z,102186.88
2022-12-18T17:00:05.519Z,102183.50
2022-12-18T17:02:32.967Z,102183.19
2022-12-18T17:04:59.781Z,102181.66
2022-12-18T17:07:27.607Z,102186.88
2022-12-18T17:09:54.810Z,102181.34
2022-12-18T17:12:21.671Z,102183.19
2022-12-18T17:14:48.268Z,102183.19
2022-12-18T17:17:23.734Z,102186.56
2022-12-18T17:19:52.238Z,102183.63
2022-12-18T17:22:19.660Z,102184.72
2022-12-18T17:24:47.018Z,102183.63
2022-12-18T17:27:14.024Z,102188.84
2022-12-18T17:29:46.755Z,102185.91
2022-12-18T17:32:14.876Z,102179.94
2022-12-18T17:34:41.363Z,102175.47
2022-12-18T17:37:09.417Z,102175.47
2022-12-18T17:39:36.754Z,102179.59
2022-12-18T17:42:03.839Z,102179.59
2022-12-18T17:44:31.735Z,102182.22
2022-12-18T17:46:58.173Z,102182.22
2022-12-18T17:49:24.777Z,102185.59
2022-12-18T17:51:51.616Z,102191.59
2022-12-18T17:54:18.079Z,102183.41
2022-12-18T17:56:44.663Z,102175.59
2022-12-18T17:59:12.429Z,102167.75
2022-12-18T18:01:44.492Z,102165.13
2022-12-18T18:04:12.425Z,102179.72
2022-12-18T18:06:39.556Z,102182.34
2022-12-18T18:09:09.942Z,102178.63
2022-12-18T18:12:03.278Z,102182.78
2022-12-18T18:14:30.186Z,102189.53
2022-12-18T18:16:56.898Z,102185.81
2022-12-18T18:19:27.230Z,102189.97
2022-12-18T18:21:53.912Z,102179.50
2022-12-18T18:24:25.906Z,102179.19
2022-12-18T18:26:52.566Z,102180.72
2022-12-18T18:29:23.587Z,102178.88
2022-12-18T18:31:52.381Z,102171.78
2022-12-18T18:34:22.406Z,102174.84
2022-12-18T18:36:48.929Z,102167.75
2022-12-18T18:39:15.661Z,102164.06
2022-12-18T18:41:42.268Z,102168.97
2022-12-18T18:44:12.030Z,102169.72
2022-12-18T18:46:38.539Z,102174.63
2022-12-18T18:49:05.672Z,102172.41
2022-12-18T18:51:35.105Z,102171.31
2022-12-18T18:54:01.938Z,102152.69
2022-12-18T18:59:15.164Z,102152.03
2022-12-18T19:01:41.891Z,102149.88
2022-12-18T19:04:08.777Z,102145.41
2022-12-18T19:06:35.279Z,102147.38
2022-12-18T19:09:04.328Z,102149.66
2022-12-18T19:11:49.461Z,102144.84
2022-12-18T19:14:16.690Z,102141.59
2022-12-18T19:16:45.442Z,102144.63
2022-12-18T19:19:14.171Z,102148.44
2022-12-18T19:21:40.913Z,102143.66
2022-12-18T19:24:07.819Z,102141.81
2022-12-18T19:26:39.814Z,102144.41
2022-12-18T19:29:08.310Z,102147.03
2022-12-18T19:31:36.948Z,102143.75
2022-12-18T19:34:06.488Z,102145.28
2022-12-18T19:36:33.899Z,102152.03
2022-12-18T19:39:01.654Z,102142.00
2022-12-18T19:41:31.382Z,102141.69
2022-12-18T19:44:00.011Z,102154.00
2022-12-18T19:46:28.668Z,102160.00
2022-12-18T19:48:55.330Z,102149.22
2022-12-18T19:51:26.113Z,102151.50
2022-12-18T19:53:58.168Z,102150.41
2022-12-18T19:56:28.065Z,102153.03
2022-12-18T19:58:54.585Z,102145.81
2022-12-18T20:01:23.172Z,102135.25
2022-12-18T20:03:52.246Z,102134.06
2022-12-18T20:06:32.787Z,102137.75
2022-12-18T20:09:02.923Z,102131.34
2022-12-18T20:11:30.898Z,102139.06
2022-12-18T20:14:01.229Z,102148.00
2022-12-18T20:16:28.051Z,102132.66
2022-12-18T20:18:54.862Z,102143.44
2022-12-18T20:21:21.363Z,102140.38
2022-12-18T20:23:48.060Z,102143.75
2022-12-18T20:26:14.770Z,102141.81
2022-12-18T20:28:42.217Z,102149.31
2022-12-18T20:31:10.476Z,102149.31
2022-12-18T20:33:38.642Z,102152.69
2022-12-18T20:36:15.677Z,102144.84
2022-12-18T20:38:43.605Z,102148.56
2022-12-18T20:41:16.497Z,102131.34
2022-12-18T20:43:43.932Z,102126.13
2022-12-18T20:46:13.520Z,102118.91
2022-12-18T20:48:40.638Z,102117.06
2022-12-18T20:51:12.970Z,102118.16
2022-12-18T20:53:41.726Z,102126.34
2022-12-18T20:56:22.333Z,102118.47
2022-12-18T20:58:50.326Z,102113.25
2022-12-18T21:01:20.677Z,102106.81
2022-12-18T21:03:48.070Z,102114.66
2022-12-18T21:06:17.190Z,102103.44
2022-12-18T21:08:44.062Z,102092.66
2022-12-18T21:11:38.773Z,102083.28
2022-12-18T21:14:29.418Z,102082.97
2022-12-18T21:16:56.636Z,102076.66
2022-12-18T21:19:27.018Z,102075.56
2022-12-18T21:21:55.148Z,102067.72
2022-12-18T21:24:22.019Z,102072.19
2022-12-18T21:26:49.307Z,102069.88
2022-12-18T21:29:21.791Z,102062.47
2022-12-18T21:31:49.298Z,102057.25
2022-12-18T21:34:19.382Z,102060.28
2022-12-18T21:36:46.435Z,102062.59
2022-12-18T21:39:14.507Z,102050.59
2022-12-18T21:41:59.687Z,102058.88
2022-12-18T21:44:26.542Z,102063.78
2022-12-18T21:46:56.970Z,102060.06
2022-12-18T21:49:27.011Z,102057.13
2022-12-18T21:51:56.050Z,102050.47
2022-12-18T21:54:23.327Z,102047.84
2022-12-18T21:57:00.031Z,102048.63
2022-12-18T21:59:28.001Z,102030.31
2022-12-18T22:01:57.270Z,102013.19
2022-12-18T22:04:25.257Z,102027.78
2022-12-18T22:06:52.995Z,102021.81
2022-12-18T22:09:22.599Z,102010.25
2022-12-18T22:11:50.303Z,102009.16
2022-12-18T22:14:19.997Z,102004.69
2022-12-18T22:16:47.365Z,102012.53
2022-12-18T22:19:14.880Z,101993.47
2022-12-18T22:21:43.869Z,101999.44
2022-12-18T22:24:24.265Z,101992.03
2022-12-18T22:26:53.030Z,101979.72
2022-12-18T22:29:42.887Z,101971.88
2022-12-18T22:32:12.951Z,101967.41
2022-12-18T22:34:41.705Z,101959.22
2022-12-18T22:37:10.552Z,101945.03
2022-12-18T22:39:37.027Z,101940.25
2022-12-18T22:42:05.053Z,101929.44
2022-12-18T22:44:31.474Z,101923.13
2022-12-18T22:47:06.640Z,101921.25
2022-12-18T22:49:35.690Z,101917.88
2022-12-18T22:52:09.362Z,101912.75
2022-12-18T22:54:36.169Z,101910.13
2022-12-18T22:57:02.646Z,101915.00
2022-12-18T22:59:29.709Z,101918.38
2022-12-18T23:01:59.239Z,101920.66
2022-12-18T23:04:29.285Z,101916.94
2022-12-18T23:07:02.590Z,101913.22
2022-12-18T23:09:29.086Z,101905.81
2022-12-18T23:11:55.553Z,101883.00
2022-12-18T23:14:21.947Z,101882.69
2022-12-18T23:16:48.909Z,101872.63
2022-12-18T23:19:17.226Z,101865.97
2022-12-18T23:21:43.755Z,101878.72
2022-12-18T23:24:10.670Z,101887.66
2022-12-18T23:26:37.270Z,101884.72
2022-12-18T23:29:04.558Z,101883.63
2022-12-18T23:31:34.033Z,101882.53
2022-12-18T23:34:02.001Z,101876.53
2022-12-18T23:36:29.068Z,101875.44
2022-12-18T23:38:59.086Z,101872.47
2022-12-18T23:41:28.560Z,101846.63
2022-12-18T23:43:55.077Z,101848.16
2022-12-18T23:46:31.193Z,101828.75
2022-12-18T23:49:00.760Z,101824.59
2022-12-18T23:51:28.319Z,101821.97
2022-12-18T23:53:57.486Z,101825.78
2022-12-18T23:56:25.514Z,101841.91
2022-12-18T23:58:52.872Z,101835.16
